Емельяново

Карта отелей и гостиниц, располагающихся рядом с аэропортом Емельяново :

Емельяново
Красноярск
Красноярский край 56° 10' 22.5588" N, 92° 29' 35.7" E
Код аэродрома ИКАО
UNKL
Код аэродрома RU
УНКЛ
Координаты
N56.17293° E092.49325°
Превышение над уровнем моря
287
Основная полоса
11/29
Курс магнитный
109,1/289,1
Длина основной ВПП
3705
Ширина основной ВПП
60
Покрытие основной ВПП
Твёрдое (асфальтобетон)
Освещение ВПП
Постоянное
Тип: 
Аэродром
Класс аэродрома: 
Международный
Принадлежность: 
ГА
Статус: 
Действующий
Сайт: 
www.yemelyanovo.ru
E-mail аэродрома: 
office@kia.aero
Страна: 
Россия
Регион: 
Красноярский край
Город: 
Красноярск
Дополнительная информация: 
Оператор: ООО "Аэропорт Емельяново". Построен в 1970 г, введен в эксплуатацию 25 октября 1980 г. В 2016 г. аэропорт вошел в перечень аэропортов федерального значения. Имеет выгодное географическое положение и является стратегическим транзитным узлом в воздушном сообщении между Европой и Азией. Военный индекс: XNKL / ЬНКЛ.
Схемы аэропортов: 
Погода: 

Авиационная погода в Емельяново

Регион: 
Погода METAR: 
UNKL 171630Z 29001MPS CAVOK M07/M12 Q1021 R29/CLRD65 NOSIG RMK QFE740
Время наблюдения
2021-04-17T16:30:00Z
Температура C
-7.0
Точка росы
-12.0
Направление ветра
290
Скорость ветра (узлы)
2
Метео видимость
6.21
Явления погоды
Условия полета
VFR
Аэропорт подробнее: 

Найти трансфер

С помощью этой формы Вы можете найти трансфер из аэропорта Емельяново в город, аэропорт или вокзал:

Карта места

Javascript is required to view this map.

Погода в аэропортах:

Авиационная погода в Вадсё

Регион: 
Погода METAR: 
ENVD 171320Z 05008KT 4000 DZ BKN004 01/00 Q1032
Время наблюдения
2021-04-17T13:20:00Z
Температура C
1.0
Точка росы
0.0
Направление ветра
50
Скорость ветра (узлы)
8
Метео видимость
2.49
Явления погоды
DZ
Условия полета
LIFR

Авиационная погода в Вардё

Регион: 
Погода METAR: 
ENSS 161920Z 26018KT 9999 -RA FEW026 SCT043 03/01 Q1025 RMK WIND 500FT 27031KT
Время наблюдения
2021-04-16T19:20:00Z
Температура C
3.0
Точка росы
1.0
Направление ветра
260
Скорость ветра (узлы)
18
Метео видимость
6.21
Явления погоды
-RA
Условия полета
VFR

Авиационная погода в Мирном

Регион: 
Погода METAR: 
UERR 171700Z 29005G10MPS 9999 DRSN NSC M15/M22 Q1002 R25/890340 NOSIG RMK QFE721/0961
Время наблюдения
2021-04-17T17:00:00Z
Температура C
-15.0
Точка росы
-22.0
Направление ветра
290
Скорость ветра (узлы)
10
Метео видимость
6.21
Явления погоды
DRSN
Условия полета
VFR
Аэропорт подробнее: 

Авиационная погода в аэропорту Новый

Регион: 
Погода METAR: 
UHHH 171630Z 19001MPS 0050 R23R/P2000U PRFG VV002 00/00 Q1012 R23R/090060 NOSIG RMK QBB060 QFE753/1004
Время наблюдения
2021-04-17T16:30:00Z
Температура C
0.0
Точка росы
0.0
Направление ветра
190
Скорость ветра (узлы)
2
Метео видимость
0.03
Явления погоды
PRFG
Условия полета
LIFR
Аэропорт подробнее: